Time;durP1;ratioP1;P1;durP2;ratioP2;P2;SDS_P1;SDS_P2;PMS_P1;PMS_P2;Temp;Humidity;BMP_temperature;BMP_pressure;BME280_temperature;BME280_humidity;BME280_pressure;Samples;Min_cycle;Max_cycle;Signal;HPM_P1;HPM_P2
2022/05/27 00:00:27;;;;;;;2.20;1.02;;;;;;;15.23;67.48;99224.85;4125975;85;21099;-84
2022/05/27 00:06:56;;;;;;;2.22;0.98;;;;;;;15.20;67.52;99222.31;4265362;82;21704;-84
2022/05/27 00:13:18;;;;;;;4.85;1.30;;;;;;;15.16;67.57;99216.01;4126622;85;22375;-84
2022/05/27 00:19:44;;;;;;;3.70;0.95;;;;;;;15.11;67.64;99215.03;4237324;82;20971;-84
2022/05/27 00:26:07;;;;;;;6.33;1.15;;;;;;;15.07;67.96;99215.66;4254006;83;21029;-84
2022/05/27 00:32:46;;;;;;;3.45;1.25;;;;;;;15.03;67.97;99207.20;4234253;82;21055;-85
2022/05/27 00:39:17;;;;;;;3.65;1.00;;;;;;;15.04;67.95;99201.29;4264017;82;21471;-84
2022/05/27 00:45:52;;;;;;;3.65;1.30;;;;;;;15.07;67.89;99192.22;4299398;81;21645;-86
2022/05/27 00:52:14;;;;;;;4.00;1.62;;;;;;;15.09;67.91;99191.23;4330946;81;21435;-84
2022/05/27 01:12:03;;;;;;;3.22;1.17;;;;;;;15.04;68.45;99192.23;4331593;81;21479;-84
2022/05/27 01:25:59;;;;;;;2.52;1.32;;;;;;;14.89;68.77;99190.71;4315127;81;21424;-84
2022/05/27 01:32:28;;;;;;;1.87;1.10;;;;;;;14.83;69.23;99172.41;4327465;80;21065;-84
2022/05/27 01:38:57;;;;;;;2.60;1.27;;;;;;;14.80;69.65;99172.44;4316370;81;21477;-84
2022/05/27 01:53:03;;;;;;;2.62;1.00;;;;;;;14.75;69.53;99154.93;3758794;94;21161;-84
2022/05/27 01:59:50;;;;;;;2.95;1.10;;;;;;;14.69;69.56;99159.28;3981996;87;21106;-85
2022/05/27 02:20:14;;;;;;;2.52;0.95;;;;;;;14.68;69.88;99135.65;4114793;85;21113;-84
2022/05/27 02:26:25;;;;;;;3.40;1.00;;;;;;;14.69;70.30;99142.75;4114301;84;21149;-84
2022/05/27 02:39:24;;;;;;;3.20;0.90;;;;;;;14.64;70.08;99132.93;4143047;84;21106;-85
2022/05/27 02:59:47;;;;;;;2.42;1.32;;;;;;;14.64;70.65;99119.16;4339486;81;21030;-85
2022/05/27 03:06:20;;;;;;;4.30;1.77;;;;;;;14.58;70.64;99113.83;4268203;82;21008;-84
2022/05/27 03:12:43;;;;;;;2.30;1.50;;;;;;;14.57;71.16;99112.27;4267493;82;20977;-84
2022/05/27 03:19:34;;;;;;;2.65;1.27;;;;;;;14.50;71.09;99118.40;4153856;84;20991;-83
2022/05/27 03:33:10;;;;;;;1.25;0.80;;;;;;;14.45;70.90;99107.20;4231801;84;21137;-84
2022/05/27 03:46:42;;;;;;;1.87;0.88;;;;;;;14.54;71.08;99093.79;4097234;86;21199;-84
2022/05/27 03:53:01;;;;;;;3.15;0.98;;;;;;;14.61;70.95;99096.50;4085254;85;21195;-84
2022/05/27 03:59:04;;;;;;;1.60;1.00;;;;;;;14.69;70.91;99091.16;4096053;81;21120;-84
2022/05/27 04:05:19;;;;;;;1.35;0.90;;;;;;;14.72;71.05;99088.98;4264407;81;22018;-85
2022/05/27 04:11:47;;;;;;;3.37;0.80;;;;;;;14.77;71.23;99083.06;4136857;86;21016;-84
2022/05/27 04:18:13;;;;;;;2.60;1.00;;;;;;;14.91;71.17;99076.72;4295136;82;21939;-83
2022/05/27 04:24:14;;;;;;;4.40;1.10;;;;;;;15.02;71.26;99076.84;4263299;81;21053;-84
2022/05/27 04:37:27;;;;;;;2.10;1.40;;;;;;;15.26;71.29;99070.41;4311921;81;21145;-85
2022/05/27 04:43:39;;;;;;;5.10;1.30;;;;;;;15.42;71.52;99070.73;4327895;81;21048;-83
2022/05/27 05:03:39;;;;;;;4.22;1.10;;;;;;;15.57;71.53;99058.39;4008132;87;21073;-84
2022/05/27 05:09:44;;;;;;;5.03;1.15;;;;;;;15.78;71.69;99063.53;4020193;87;22066;-84
2022/05/27 05:22:49;;;;;;;4.37;0.85;;;;;;;16.21;71.18;99032.34;3998787;87;21516;-84
2022/05/27 05:29:09;;;;;;;1.60;0.88;;;;;;;16.63;70.96;99036.02;4013589;87;21037;-83
2022/05/27 05:35:35;;;;;;;4.62;1.22;;;;;;;16.96;71.05;99025.50;4010498;87;21502;-84
2022/05/27 05:42:03;;;;;;;2.62;0.90;;;;;;;17.11;70.24;99013.06;4013239;87;21025;-84
2022/05/27 05:48:05;;;;;;;2.92;1.10;;;;;;;17.22;70.21;99017.04;3940751;88;21107;-83
2022/05/27 05:54:16;;;;;;;5.53;0.85;;;;;;;17.45;70.47;99008.80;3958584;89;20966;-84
2022/05/27 06:00:30;;;;;;;3.83;0.90;;;;;;;17.54;69.07;99009.66;3972051;88;21029;-85
2022/05/27 06:06:36;;;;;;;3.30;1.10;;;;;;;17.63;69.08;99009.30;3954465;89;21068;-85
2022/05/27 06:12:49;;;;;;;1.62;0.70;;;;;;;17.80;69.01;98998.52;4029372;87;21727;-86
2022/05/27 06:38:46;;;;;;;1.00;0.65;;;;;;;18.21;66.99;98978.75;4059895;87;21845;-83
2022/05/27 06:44:50;;;;;;;0.80;0.40;;;;;;;18.39;67.43;98967.52;4065974;87;21025;-85
2022/05/27 06:57:59;;;;;;;2.85;0.65;;;;;;;18.90;67.29;98950.77;4064055;87;21108;-86
2022/05/27 07:04:06;;;;;;;2.98;1.10;;;;;;;19.34;66.35;98944.55;4063977;87;21000;-86
2022/05/27 07:10:08;;;;;;;5.55;0.85;;;;;;;19.48;66.25;98938.64;4053602;87;21052;-85
2022/05/27 07:16:09;;;;;;;4.85;0.80;;;;;;;19.65;65.35;98934.66;4074293;85;22494;-86
2022/05/27 07:22:11;;;;;;;2.33;0.60;;;;;;;19.88;64.70;98921.92;4068265;87;21670;-86
2022/05/27 07:28:13;;;;;;;1.32;0.65;;;;;;;20.05;64.50;98921.25;4053911;87;21067;-86
2022/05/27 07:34:14;;;;;;;3.17;0.70;;;;;;;20.31;63.55;98908.24;4065534;85;21201;-85
2022/05/27 07:40:16;;;;;;;2.45;0.80;;;;;;;20.56;61.70;98895.16;4064851;85;21122;-86
2022/05/27 07:46:19;;;;;;;2.65;0.70;;;;;;;20.68;61.25;98900.55;4066948;87;21031;-87
2022/05/27 07:52:21;;;;;;;2.83;0.85;;;;;;;21.01;60.18;98886.00;4065804;85;21156;-86
2022/05/27 07:58:22;;;;;;;1.87;0.70;;;;;;;21.16;58.63;98885.69;4076106;85;21093;-87
2022/05/27 08:04:23;;;;;;;2.05;0.90;;;;;;;21.35;58.37;98883.87;4045260;87;21568;-84
2022/05/27 08:10:30;;;;;;;2.25;0.98;;;;;;;21.90;56.11;98858.06;4042503;87;22042;-86
2022/05/27 08:16:33;;;;;;;4.58;0.85;;;;;;;22.41;57.92;98841.17;4035059;87;21035;-84
2022/05/27 08:22:34;;;;;;;1.70;0.90;;;;;;;22.47;57.36;98828.21;4041136;87;21691;-85
2022/05/27 08:28:36;;;;;;;3.55;1.02;;;;;;;22.63;56.88;98821.64;4036786;87;21087;-87
2022/05/27 08:41:35;;;;;;;2.80;1.00;;;;;;;23.36;53.69;98822.58;4037600;87;21637;-87
2022/05/27 08:47:47;;;;;;;2.77;0.50;;;;;;;23.37;51.56;98805.36;4043896;87;21577;-85
2022/05/27 08:53:57;;;;;;;4.28;0.70;;;;;;;23.73;52.98;98811.55;4036348;87;21044;-86
2022/05/27 09:00:17;;;;;;;3.85;0.80;;;;;;;23.85;49.88;98802.23;4047504;85;21724;-88
2022/05/27 09:06:23;;;;;;;4.47;0.88;;;;;;;23.22;51.60;98807.95;4075271;87;21874;-87
2022/05/27 09:13:09;;;;;;;3.57;0.70;;;;;;;22.61;51.59;98801.78;4060121;85;21106;-87
2022/05/27 09:19:23;;;;;;;4.77;0.90;;;;;;;22.66;51.15;98793.57;4063579;87;22014;-86
2022/05/27 09:25:44;;;;;;;1.32;0.88;;;;;;;23.35;50.71;98789.67;4037317;87;21016;-85
2022/05/27 09:32:13;;;;;;;4.00;0.98;;;;;;;23.69;51.11;98780.20;4096672;85;21163;-84
2022/05/27 09:38:28;;;;;;;2.17;0.82;;;;;;;23.92;50.86;98777.53;3994593;85;21409;-85
2022/05/27 09:51:52;;;;;;;2.02;0.80;;;;;;;23.37;50.18;98751.50;4044926;87;21648;-84
2022/05/27 09:58:09;;;;;;;5.65;1.12;;;;;;;23.51;50.17;98742.52;4066615;87;21094;-85
2022/05/27 10:04:43;;;;;;;4.95;1.05;;;;;;;23.53;50.58;98732.42;4075902;87;21601;-87
2022/05/27 10:17:52;;;;;;;3.47;0.67;;;;;;;23.57;50.03;98719.05;3948733;87;21075;-85
2022/05/27 10:38:11;;;;;;;;;;;;;;;22.79;50.80;98695.78;4069774;87;21070;-86
2022/05/27 11:07:12;;;;;;;15.10;1.20;;;;;;;22.85;49.90;98661.83;3951400;89;21134;-87
2022/05/27 11:20:30;;;;;;;7.55;1.00;;;;;;;21.88;50.46;98647.98;3968616;89;21103;-86
2022/05/27 11:27:15;;;;;;;7.20;1.15;;;;;;;21.62;50.66;98624.48;3938374;89;21139;-87
2022/05/27 11:48:25;;;;;;;6.65;1.30;;;;;;;21.70;51.67;98619.40;4072171;87;21580;-87
2022/05/27 11:54:50;;;;;;;4.45;1.05;;;;;;;21.61;52.25;98622.91;4067632;87;21089;-86
2022/05/27 12:01:38;;;;;;;9.80;1.05;;;;;;;21.24;52.81;98618.99;4026801;87;21054;-86
2022/05/27 12:08:07;;;;;;;9.15;1.25;;;;;;;21.04;52.92;98610.21;4037333;87;21127;-85
2022/05/27 12:14:52;;;;;;;11.10;1.20;;;;;;;21.44;53.80;98599.92;4023647;87;21100;-87
2022/05/27 12:21:38;;;;;;;1.80;0.70;;;;;;;21.44;53.80;98599.92;3997226;87;21583;-85
2022/05/27 12:27:58;;;;;;;4.35;1.00;;;;;;;21.58;53.74;98600.15;3994141;87;21034;-86
2022/05/27 12:34:22;;;;;;;6.72;1.10;;;;;;;21.67;54.45;98592.46;4000160;87;21089;-85
2022/05/27 12:47:36;;;;;;;4.97;1.05;;;;;;;21.48;54.10;98590.22;3916951;89;21770;-85
2022/05/27 12:54:00;;;;;;;10.20;1.80;;;;;;;21.71;54.15;98588.30;3919442;89;21151;-86
2022/05/27 13:13:41;;;;;;;6.50;1.07;;;;;;;21.27;55.26;98608.34;3892608;90;21930;-87
2022/05/27 13:20:07;;;;;;;8.08;1.90;;;;;;;21.12;55.20;98615.08;3873096;90;21057;-85
2022/05/27 13:26:17;;;;;;;10.03;1.27;;;;;;;20.90;56.91;98683.03;3891673;90;21068;-85
2022/05/27 13:33:05;;;;;;;1.72;0.80;;;;;;;19.19;62.21;98769.89;3967256;89;21618;-83
2022/05/27 13:39:57;;;;;;;5.95;0.98;;;;;;;16.78;66.13;98806.59;4017658;87;21029;-84
2022/05/27 13:53:32;;;;;;;3.98;0.78;;;;;;;14.88;66.63;98843.23;3963889;88;21079;-83
2022/05/27 13:59:53;;;;;;;4.85;0.70;;;;;;;14.71;67.35;98867.00;4025824;87;21139;-82
2022/05/27 14:06:04;;;;;;;3.17;1.10;;;;;;;14.79;67.72;98893.91;4040076;86;21095;-84
2022/05/27 14:12:28;;;;;;;3.62;1.00;;;;;;;14.65;68.30;98903.06;4036734;87;21072;-83
2022/05/27 14:18:40;;;;;;;5.45;1.00;;;;;;;14.59;69.09;98902.51;4048987;87;21088;-83
2022/05/27 14:24:44;;;;;;;1.45;0.70;;;;;;;14.55;69.63;98903.14;4021476;87;21005;-84
2022/05/27 14:31:03;;;;;;;3.08;0.90;;;;;;;14.45;70.00;98897.88;4053615;87;21502;-85
2022/05/27 14:37:33;;;;;;;3.55;1.07;;;;;;;14.28;70.30;98897.39;4025367;86;21553;-84
2022/05/27 14:51:05;;;;;;;1.82;1.32;;;;;;;14.02;70.89;98916.55;4044017;85;21966;-84
2022/05/27 15:11:25;;;;;;;3.98;2.15;;;;;;;13.38;72.93;98938.52;4067707;86;21099;-83
2022/05/27 15:17:36;;;;;;;4.77;1.70;;;;;;;13.14;73.52;98927.55;4029455;87;22237;-85
2022/05/27 15:23:57;;;;;;;2.55;1.70;;;;;;;12.98;74.31;98920.24;4057955;86;21135;-84
2022/05/27 15:37:15;;;;;;;2.90;1.85;;;;;;;12.92;75.28;98935.55;4046927;86;21123;-85
2022/05/27 15:43:46;;;;;;;3.40;2.55;;;;;;;12.74;75.48;98927.86;4035100;87;21040;-84
2022/05/27 15:49:48;;;;;;;2.83;2.15;;;;;;;12.73;75.84;98907.88;4045064;87;21090;-83
2022/05/27 15:55:51;;;;;;;4.10;2.00;;;;;;;12.61;77.89;98904.91;4063873;87;21047;-83
2022/05/27 16:17:50;;;;;;;4.33;2.10;;;;;;;12.27;77.91;98926.98;4007308;87;21046;-83
2022/05/27 16:22:22;;;;;;;2.60;1.80;;;;;;;12.08;78.67;98920.45;4047885;87;21115;-83
2022/05/27 16:28:25;;;;;;;3.05;1.70;;;;;;;11.90;79.05;98910.58;4054623;86;21116;-84
2022/05/27 16:41:41;;;;;;;4.25;1.90;;;;;;;11.57;81.29;98891.00;3926037;87;21094;-83
2022/05/27 16:48:22;;;;;;;3.47;2.12;;;;;;;11.40;81.93;98925.15;4062214;87;21031;-84
2022/05/27 16:54:30;;;;;;;6.58;2.42;;;;;;;11.34;82.52;98905.52;4015876;87;21144;-84
2022/05/27 17:00:37;;;;;;;5.90;2.72;;;;;;;11.33;82.43;98895.73;4042366;87;21078;-84
2022/05/27 17:20:33;;;;;;;3.03;1.77;;;;;;;11.11;84.37;98880.33;4020392;87;21448;-84
2022/05/27 17:26:34;;;;;;;3.40;2.10;;;;;;;10.99;85.05;98864.97;4031742;87;21581;-84
2022/05/27 17:32:56;;;;;;;3.87;2.60;;;;;;;10.86;84.50;98862.34;4078715;85;21624;-84
2022/05/27 17:39:23;;;;;;;8.75;2.10;;;;;;;10.78;83.94;98874.41;4016408;87;21112;-85
2022/05/27 17:45:26;;;;;;;5.05;2.35;;;;;;;10.70;84.88;98875.50;4004338;87;21032;-85
2022/05/27 17:51:41;;;;;;;4.85;2.60;;;;;;;10.67;84.60;98879.58;4049166;87;21133;-84
2022/05/27 17:57:56;;;;;;;3.65;2.17;;;;;;;10.67;84.52;98881.73;4084882;87;21071;-85
2022/05/27 18:04:04;;;;;;;4.03;2.62;;;;;;;10.60;85.82;98869.34;4102569;87;21059;-83
2022/05/27 18:24:18;;;;;;;4.33;2.83;;;;;;;10.57;86.19;98797.56;4048505;87;21012;-84
2022/05/27 18:30:24;;;;;;;5.83;3.60;;;;;;;10.61;86.00;98825.77;4004791;87;21091;-85
2022/05/27 18:43:00;;;;;;;6.08;3.90;;;;;;;10.58;86.58;98840.21;4054750;87;21028;-85
2022/05/27 18:49:14;;;;;;;7.67;4.83;;;;;;;10.67;87.21;98837.94;4063863;87;21502;-85
2022/05/27 18:55:21;;;;;;;6.60;4.67;;;;;;;10.74;86.78;98845.42;4058697;87;21046;-84
2022/05/27 19:01:25;;;;;;;8.38;4.80;;;;;;;10.66;87.38;98841.84;4061463;87;20985;-84
2022/05/27 19:07:28;;;;;;;16.62;5.10;;;;;;;10.66;87.57;98844.59;4018667;87;21074;-84
2022/05/27 19:13:31;;;;;;;6.25;4.50;;;;;;;10.71;87.97;98848.92;4027155;88;21095;-84
2022/05/27 19:25:53;;;;;;;9.93;5.37;;;;;;;10.88;88.43;98865.47;4038807;87;20978;-84
2022/05/27 19:32:01;;;;;;;8.53;6.05;;;;;;;10.85;87.71;98870.34;4050042;87;21094;-84
2022/05/27 19:38:06;;;;;;;8.25;5.45;;;;;;;10.82;87.80;98864.25;4030573;87;21034;-84
2022/05/27 19:44:13;;;;;;;7.53;5.00;;;;;;;10.80;87.67;98843.33;4093589;87;21147;-85
2022/05/27 19:50:15;;;;;;;7.30;4.35;;;;;;;10.66;87.67;98836.95;4093791;87;21092;-83
2022/05/27 19:56:23;;;;;;;10.13;4.40;;;;;;;10.63;87.85;98842.58;4096922;87;21111;-84
2022/05/27 20:08:48;;;;;;;6.87;4.05;;;;;;;10.68;88.41;98840.87;4009417;87;21072;-83
2022/05/27 20:14:54;;;;;;;5.60;4.28;;;;;;;10.73;88.72;98842.46;4032270;87;21044;-84
2022/05/27 20:20:55;;;;;;;8.05;4.67;;;;;;;10.82;89.17;98846.45;4042034;86;21046;-84
2022/05/27 20:27:04;;;;;;;10.00;4.40;;;;;;;10.82;89.07;98836.88;4033666;86;21034;-84
2022/05/27 20:33:18;;;;;;;6.28;4.40;;;;;;;10.79;89.66;98843.11;4041751;86;21047;-83
2022/05/27 20:39:20;;;;;;;6.25;3.62;;;;;;;10.70;88.97;98819.38;4032384;87;21101;-83
2022/05/27 20:45:22;;;;;;;5.67;3.42;;;;;;;10.57;89.09;98812.63;4053171;86;21100;-85
2022/05/27 20:51:31;;;;;;;4.78;3.33;;;;;;;10.49;89.33;98803.38;4055864;86;21186;-83
2022/05/27 20:57:39;;;;;;;18.12;3.80;;;;;;;10.53;90.13;98816.50;4056794;86;21208;-83
2022/05/27 21:03:41;;;;;;;6.15;3.83;;;;;;;10.57;90.39;98810.48;4044544;87;21115;-83
2022/05/27 21:09:43;;;;;;;7.55;4.17;;;;;;;10.47;89.66;98813.91;4019059;86;21643;-83
2022/05/27 21:15:46;;;;;;;7.85;4.15;;;;;;;10.35;89.97;98797.78;3996365;88;22271;-83
2022/05/27 21:21:51;;;;;;;8.85;4.58;;;;;;;10.36;90.53;98797.41;3911161;90;22034;-82
2022/05/27 21:27:54;;;;;;;8.45;4.33;;;;;;;10.32;90.37;98795.20;3990394;88;21118;-83
2022/05/27 21:34:05;;;;;;;6.65;4.33;;;;;;;10.24;90.54;98781.25;3906479;90;21159;-82
2022/05/27 21:40:12;;;;;;;5.67;4.00;;;;;;;10.21;90.91;98788.85;3954474;90;21085;-82
2022/05/27 21:46:24;;;;;;;6.95;4.33;;;;;;;10.15;91.12;98788.99;3980323;88;21084;-82
2022/05/27 21:52:25;;;;;;;8.75;4.30;;;;;;;10.13;90.95;98786.45;3919027;90;22663;-83
2022/05/27 21:58:29;;;;;;;6.55;4.15;;;;;;;10.02;90.85;98789.63;3993786;87;21051;-83
2022/05/27 22:04:31;;;;;;;6.80;4.12;;;;;;;9.92;90.93;98802.59;3901538;90;21126;-83
2022/05/27 22:16:54;;;;;;;5.97;3.35;;;;;;;9.62;90.60;98799.13;4041594;87;21040;-82
2022/05/27 22:22:57;;;;;;;5.30;3.72;;;;;;;9.63;91.89;98797.42;4024763;87;21100;-83
2022/05/27 22:29:00;;;;;;;8.00;3.77;;;;;;;9.62;91.62;98797.19;4041244;87;21164;-83
2022/05/27 22:35:04;;;;;;;6.90;3.08;;;;;;;9.58;91.26;98799.11;4035456;86;21084;-83
2022/05/27 22:41:06;;;;;;;8.85;3.55;;;;;;;9.49;91.57;98795.85;4057633;87;21544;-83
2022/05/27 22:47:08;;;;;;;5.87;3.25;;;;;;;9.53;92.27;98798.86;4035087;87;21243;-83
2022/05/27 22:53:28;;;;;;;6.03;3.98;;;;;;;9.51;91.82;98794.91;4040045;87;21671;-82
2022/05/27 22:59:31;;;;;;;7.45;3.33;;;;;;;9.37;91.66;98791.44;4036884;87;21119;-84
2022/05/27 23:05:33;;;;;;;9.98;4.20;;;;;;;9.47;92.97;98798.19;4022858;87;21136;-82
2022/05/27 23:11:36;;;;;;;6.00;3.35;;;;;;;9.61;92.99;98802.46;4047864;87;21107;-82
2022/05/27 23:24:16;;;;;;;6.95;5.00;;;;;;;9.60;93.49;98813.77;4058676;87;21131;-82
2022/05/27 23:30:19;;;;;;;10.45;5.53;;;;;;;9.70;94.00;98817.98;4076729;86;21195;-84
2022/05/27 23:36:22;;;;;;;8.78;5.33;;;;;;;9.74;93.24;98822.90;4089675;87;21055;-82
2022/05/27 23:43:00;;;;;;;8.90;5.05;;;;;;;9.58;92.98;98812.17;4044639;87;21061;-82
2022/05/27 23:49:12;;;;;;;9.58;6.33;;;;;;;9.43;93.45;98806.34;4099232;87;21051;-82
2022/05/27 23:55:19;;;;;;;7.90;6.62;;;;;;;9.40;93.72;98809.81;4099790;87;21076;-82
